Black Earth, Wisconsin
Current Conditions -  °F | °C
As of 9:55 PM on Friday 24 Oct 2014 (Local Time) from KC29 Reporting Station
Overcast Overcast  
Wind Chill: 58°   Ceiling: 2000
Heat Index: 58°   Visibility: 10mi
Dew Point: 51°   Wind: 0mph
Humidity: 76%   Direction: NA
Pressure: 29.92"   Gusts: NA
Location:  43.14°N, 89.75°W
Report Text: KC29 250255Z AUTO 00000KT 10SM OVC020 15/11 A2992 RMK AO1 T01470106
Loading
Personal Weather Stations






























Interactive Weather Map
Tropical Storm Tracking
New forecast layout! Learn more

10-Day Weather Forecast

Advertisements
Track Severe Weather on mobile